createdAt,value
2022-10-23T00:01:26.510Z,94575.97
2022-10-23T00:03:58.606Z,94578.38
2022-10-23T00:06:25.906Z,94573.16
2022-10-23T00:08:52.637Z,94580.16
2022-10-23T00:11:24.107Z,94575.41
2022-10-23T00:13:51.427Z,94578.78
2022-10-23T00:16:18.077Z,94577.41
2022-10-23T00:18:45.853Z,94570.03
2022-10-23T00:21:14.371Z,94568.25
2022-10-23T00:23:41.668Z,94570.22
2022-10-23T00:26:11.198Z,94569.66
2022-10-23T00:28:38.462Z,94575.19
2022-10-23T00:31:05.937Z,94566.44
2022-10-23T00:33:33.284Z,94557.84
2022-10-23T00:36:00.105Z,94558.06
2022-10-23T00:38:26.929Z,94557.47
2022-10-23T00:40:53.741Z,94565.81
2022-10-23T00:43:23.018Z,94560.03
2022-10-23T00:45:50.028Z,94560.44
2022-10-23T00:48:17.639Z,94560.63
2022-10-23T00:50:45.049Z,94564.63
2022-10-23T00:53:13.551Z,94559.03
2022-10-23T00:55:46.020Z,94555.25
2022-10-23T00:58:14.152Z,94554.38
2022-10-23T01:00:44.628Z,94556.00
2022-10-23T01:03:11.476Z,94552.84
2022-10-23T01:08:41.068Z,94557.22
2022-10-23T01:11:13.109Z,94556.38
2022-10-23T01:13:45.249Z,94555.75
2022-10-23T01:16:29.645Z,94541.81
2022-10-23T01:19:07.858Z,94562.56
2022-10-23T01:21:50.569Z,94562.72
2022-10-23T01:24:51.049Z,94548.38
2022-10-23T01:27:20.817Z,94552.00
2022-10-23T01:30:11.320Z,94544.44
2022-10-23T01:33:02.218Z,94538.31
2022-10-23T01:35:38.467Z,94541.28
2022-10-23T01:38:14.170Z,94545.28
2022-10-23T01:41:03.809Z,94538.91
2022-10-23T01:44:02.949Z,94544.09
2022-10-23T01:46:30.616Z,94544.28
2022-10-23T01:48:58.163Z,94539.31
2022-10-23T01:51:28.028Z,94532.94
2022-10-23T01:53:59.868Z,94533.75
2022-10-23T01:56:31.725Z,94533.75
2022-10-23T01:59:05.529Z,94530.97
2022-10-23T02:01:33.287Z,94531.75
2022-10-23T02:04:01.605Z,94527.38
2022-10-23T02:06:28.488Z,94532.53
2022-10-23T02:08:55.247Z,94532.94
2022-10-23T02:11:22.315Z,94537.69
2022-10-23T02:13:51.648Z,94529.75
2022-10-23T02:16:53.980Z,94530.38
2022-10-23T02:19:31.562Z,94528.56
2022-10-23T02:22:19.318Z,94527.78
2022-10-23T02:25:09.888Z,94525.59
2022-10-23T02:28:01.818Z,94524.22
2022-10-23T02:30:28.698Z,94517.81
2022-10-23T02:32:55.801Z,94523.19
2022-10-23T02:35:24.406Z,94529.97
2022-10-23T02:37:59.450Z,94525.19
2022-10-23T02:40:33.737Z,94523.59
2022-10-23T02:43:18.450Z,94530.00
2022-10-23T02:46:17.409Z,94528.78
2022-10-23T02:48:55.948Z,94528.56
2022-10-23T02:51:31.716Z,94520.41
2022-10-23T02:54:25.938Z,94512.63
2022-10-23T02:57:09.239Z,94512.47
2022-10-23T02:59:41.183Z,94520.41
2022-10-23T03:02:17.196Z,94524.19
2022-10-23T03:04:44.452Z,94524.59
2022-10-23T03:07:13.266Z,94521.41
2022-10-23T03:09:39.887Z,94523.78
2022-10-23T03:12:06.616Z,94520.41
2022-10-23T03:14:33.264Z,94517.44
2022-10-23T03:16:59.966Z,94505.88
2022-10-23T03:19:26.689Z,94501.69
2022-10-23T03:21:53.397Z,94502.69
2022-10-23T03:24:20.128Z,94500.88
2022-10-23T03:26:46.868Z,94500.28
2022-10-23T03:29:13.598Z,94499.47
2022-10-23T03:31:40.250Z,94492.69
2022-10-23T03:34:11.176Z,94502.09
2022-10-23T03:36:38.284Z,94508.84
2022-10-23T03:39:05.317Z,94516.63
2022-10-23T03:41:32.348Z,94520.59
2022-10-23T03:43:59.143Z,94517.00
2022-10-23T03:46:25.820Z,94517.63
2022-10-23T03:48:52.478Z,94511.03
2022-10-23T03:51:19.169Z,94509.22
2022-10-23T03:53:45.836Z,94505.44
2022-10-23T03:56:12.490Z,94504.25
2022-10-23T03:58:39.277Z,94499.06
2022-10-23T04:01:06.069Z,94500.88
2022-10-23T04:03:32.841Z,94499.06
2022-10-23T04:05:59.619Z,94498.88
2022-10-23T04:08:26.300Z,94497.28
2022-10-23T04:10:54.425Z,94500.69
2022-10-23T04:13:21.169Z,94491.72
2022-10-23T04:15:49.436Z,94499.06
2022-10-23T04:18:16.549Z,94499.25
2022-10-23T04:20:43.124Z,94495.09
2022-10-23T04:23:09.745Z,94496.09
2022-10-23T04:25:36.349Z,94493.09
2022-10-23T04:28:02.962Z,94485.34
2022-10-23T04:30:29.542Z,94492.13
2022-10-23T04:32:56.113Z,94492.09
2022-10-23T04:35:22.730Z,94492.69
2022-10-23T04:37:49.381Z,94498.69
2022-10-23T04:40:15.972Z,94495.50
2022-10-23T04:42:42.789Z,94511.03
2022-10-23T04:45:09.935Z,94505.03
2022-10-23T04:47:36.501Z,94512.03
2022-10-23T04:50:03.545Z,94504.69
2022-10-23T04:52:30.110Z,94522.00
2022-10-23T04:54:56.701Z,94513.63
2022-10-23T04:57:23.341Z,94506.22
2022-10-23T04:59:49.930Z,94499.88
2022-10-23T05:02:16.564Z,94497.06
2022-10-23T05:04:43.104Z,94497.06
2022-10-23T05:07:09.707Z,94506.22
2022-10-23T05:09:36.370Z,94507.41
2022-10-23T05:12:02.915Z,94494.91
2022-10-23T05:14:29.498Z,94505.81
2022-10-23T05:17:00.712Z,94501.88
2022-10-23T05:19:39.002Z,94502.25
2022-10-23T05:22:06.122Z,94502.25
2022-10-23T05:24:32.660Z,94495.06
2022-10-23T05:26:59.286Z,94493.28
2022-10-23T05:29:25.846Z,94496.28
2022-10-23T05:31:55.264Z,94499.28
2022-10-23T05:34:22.992Z,94496.88
2022-10-23T05:36:49.686Z,94490.13
2022-10-23T05:39:16.434Z,94497.47
2022-10-23T05:41:43.021Z,94490.88
2022-10-23T05:44:09.670Z,94486.31
2022-10-23T05:46:41.236Z,94483.13
2022-10-23T05:49:07.890Z,94474.78
2022-10-23T05:51:38.791Z,94483.56
2022-10-23T05:54:08.270Z,94474.56
2022-10-23T05:56:41.615Z,94478.38
2022-10-23T05:59:08.721Z,94483.91
2022-10-23T06:01:35.496Z,94491.91
2022-10-23T06:04:02.969Z,94490.13
2022-10-23T06:06:29.705Z,94506.66
2022-10-23T06:08:56.262Z,94508.25
2022-10-23T06:11:23.060Z,94503.06
2022-10-23T06:13:49.774Z,94507.66
2022-10-23T06:16:17.609Z,94516.41
2022-10-23T06:18:45.991Z,94507.03
2022-10-23T06:21:13.125Z,94520.59
2022-10-23T06:23:40.821Z,94526.59
2022-10-23T06:26:08.358Z,94527.78
2022-10-23T06:28:35.202Z,94531.16
2022-10-23T06:31:09.833Z,94540.94
2022-10-23T06:33:36.774Z,94511.00
2022-10-23T06:36:04.098Z,94530.38
2022-10-23T06:38:36.665Z,94528.56
2022-10-23T06:41:04.699Z,94528.56
2022-10-23T06:43:31.375Z,94529.34
2022-10-23T06:46:01.991Z,94529.56
2022-10-23T06:48:28.634Z,94534.97
2022-10-23T06:50:55.888Z,94529.78
2022-10-23T06:53:24.873Z,94521.41
2022-10-23T06:55:54.598Z,94525.78
2022-10-23T06:58:22.283Z,94532.56
2022-10-23T07:00:49.036Z,94539.16
2022-10-23T07:03:15.680Z,94541.13
2022-10-23T07:05:44.897Z,94544.50
2022-10-23T07:08:11.613Z,94543.34
2022-10-23T07:10:38.243Z,94537.94
2022-10-23T07:13:04.864Z,94537.72
2022-10-23T07:15:31.482Z,94536.16
2022-10-23T07:17:58.139Z,94537.75
2022-10-23T07:20:24.854Z,94536.34
2022-10-23T07:22:53.593Z,94537.34
2022-10-23T07:25:21.736Z,94543.94
2022-10-23T07:27:48.411Z,94542.34
2022-10-23T07:30:15.716Z,94537.34
2022-10-23T07:32:42.434Z,94539.53
2022-10-23T07:35:10.654Z,94535.38
2022-10-23T07:37:37.606Z,94535.38
2022-10-23T07:40:05.837Z,94531.19
2022-10-23T07:42:32.803Z,94530.19
2022-10-23T07:44:59.495Z,94533.78
2022-10-23T07:47:26.275Z,94527.19
2022-10-23T07:49:52.909Z,94525.81
2022-10-23T07:52:19.569Z,94525.19
2022-10-23T07:54:46.189Z,94518.81
2022-10-23T07:57:12.922Z,94524.19
2022-10-23T07:59:39.514Z,94521.59
2022-10-23T08:02:11.431Z,94527.78
2022-10-23T08:04:38.176Z,94531.00
2022-10-23T08:07:04.894Z,94526.41
2022-10-23T08:09:31.784Z,94519.03
2022-10-23T08:11:58.493Z,94525.22
2022-10-23T08:14:25.065Z,94523.00
2022-10-23T08:16:51.817Z,94520.22
2022-10-23T08:19:18.915Z,94515.81
2022-10-23T08:21:45.796Z,94521.78
2022-10-23T08:24:15.519Z,94521.38
2022-10-23T08:26:42.241Z,94507.81
2022-10-23T08:29:08.963Z,94511.03
2022-10-23T08:31:35.721Z,94504.63
2022-10-23T08:34:02.445Z,94496.06
2022-10-23T08:36:29.963Z,94494.88
2022-10-23T08:38:58.157Z,94503.41
2022-10-23T08:41:29.141Z,94496.03
2022-10-23T08:44:06.153Z,94498.63
2022-10-23T08:46:37.992Z,94505.44
2022-10-23T08:49:29.115Z,94508.78
2022-10-23T08:51:58.187Z,94507.97
2022-10-23T08:54:32.931Z,94518.56
2022-10-23T08:57:04.813Z,94521.53
2022-10-23T08:59:39.913Z,94514.53
2022-10-23T09:02:12.714Z,94516.88
2022-10-23T09:04:47.119Z,94502.28
2022-10-23T09:07:36.474Z,94510.38
2022-10-23T09:10:03.181Z,94506.53
2022-10-23T09:12:31.234Z,94523.97
2022-10-23T09:15:39.885Z,94520.25
2022-10-23T09:18:15.493Z,94523.66
2022-10-23T09:20:45.161Z,94511.59
2022-10-23T09:23:17.609Z,94514.81
2022-10-23T09:25:46.105Z,94503.00
2022-10-23T09:28:24.494Z,94502.28
2022-10-23T09:30:52.241Z,94509.59
2022-10-23T09:33:22.298Z,94508.72
2022-10-23T09:36:08.574Z,94505.13
2022-10-23T09:38:39.029Z,94513.41
2022-10-23T09:41:17.813Z,94511.50
2022-10-23T09:43:44.476Z,94514.00
2022-10-23T09:46:12.063Z,94515.50
2022-10-23T09:48:42.371Z,94512.88
2022-10-23T09:51:21.515Z,94511.81
2022-10-23T09:53:56.787Z,94512.94
2022-10-23T09:56:24.722Z,94513.75
2022-10-23T09:59:00.262Z,94507.63
2022-10-23T10:01:29.772Z,94522.09
2022-10-23T10:03:57.334Z,94531.28
2022-10-23T10:06:30.018Z,94517.84
2022-10-23T10:08:59.072Z,94528.44
2022-10-23T10:11:27.832Z,94523.91
2022-10-23T10:14:12.666Z,94522.63
2022-10-23T10:17:13.216Z,94526.56
2022-10-23T10:20:03.865Z,94512.16
2022-10-23T10:22:56.812Z,94518.78
2022-10-23T10:25:52.244Z,94502.22
2022-10-23T10:28:28.096Z,94506.59
2022-10-23T10:31:15.740Z,94500.44
2022-10-23T10:33:58.493Z,94490.66
2022-10-23T10:36:49.870Z,94491.31
2022-10-23T10:39:39.974Z,94478.53
2022-10-23T10:42:25.023Z,94490.63
2022-10-23T10:44:51.713Z,94489.97
2022-10-23T10:47:51.081Z,94477.59
2022-10-23T10:50:47.934Z,94477.13
2022-10-23T10:53:50.793Z,94469.97
2022-10-23T10:56:19.465Z,94465.84
2022-10-23T10:59:02.201Z,94463.56
2022-10-23T11:01:31.809Z,94462.22
2022-10-23T11:04:10.344Z,94451.19
2022-10-23T11:06:38.093Z,94453.09
2022-10-23T11:09:27.962Z,94442.31
2022-10-23T11:11:55.034Z,94444.56
2022-10-23T11:14:27.261Z,94435.81
2022-10-23T11:17:05.994Z,94439.69
2022-10-23T11:19:40.261Z,94438.50
2022-10-23T11:22:24.919Z,94433.13
2022-10-23T11:25:18.431Z,94435.59
2022-10-23T11:28:16.183Z,94421.56
2022-10-23T11:30:54.751Z,94409.97
2022-10-23T11:33:58.433Z,94408.00
2022-10-23T11:36:48.844Z,94400.25
2022-10-23T11:39:37.769Z,94387.63
2022-10-23T11:42:04.415Z,94387.94
2022-10-23T11:44:43.633Z,94379.72
2022-10-23T11:47:38.036Z,94369.88
2022-10-23T11:50:09.075Z,94370.84
2022-10-23T11:52:45.576Z,94372.16
2022-10-23T11:55:20.775Z,94371.22
2022-10-23T11:58:11.349Z,94369.72
2022-10-23T12:00:55.814Z,94369.59
2022-10-23T12:03:27.370Z,94364.34
2022-10-23T12:06:00.874Z,94362.44
2022-10-23T12:08:31.068Z,94360.28
2022-10-23T12:10:57.841Z,94359.66
2022-10-23T12:13:36.804Z,94343.13
2022-10-23T12:16:05.079Z,94340.09
2022-10-23T12:18:31.849Z,94332.66
2022-10-23T12:21:03.927Z,94336.69
2022-10-23T12:23:41.232Z,94330.75
2022-10-23T12:26:28.890Z,94318.25
2022-10-23T12:29:11.628Z,94315.88
2022-10-23T12:31:57.018Z,94310.06
2022-10-23T12:34:46.229Z,94321.97
2022-10-23T12:37:21.859Z,94304.94
2022-10-23T12:39:54.493Z,94298.56
2022-10-23T12:42:23.329Z,94306.38
2022-10-23T12:45:00.645Z,94294.22
2022-10-23T12:47:27.899Z,94297.69
2022-10-23T12:49:54.651Z,94302.41
2022-10-23T12:52:22.057Z,94302.56
2022-10-23T12:54:50.880Z,94294.09
2022-10-23T12:57:19.432Z,94291.28
2022-10-23T12:59:46.180Z,94270.88
2022-10-23T13:02:25.851Z,94280.16
2022-10-23T13:04:54.293Z,94283.59
2022-10-23T13:07:27.312Z,94272.53
2022-10-23T13:09:54.218Z,94278.38
2022-10-23T13:12:34.321Z,94278.97
2022-10-23T13:15:07.011Z,94274.63
2022-10-23T13:17:41.786Z,94273.81
2022-10-23T13:20:22.697Z,94267.69
2022-10-23T13:23:12.739Z,94266.75
2022-10-23T13:25:39.987Z,94268.72
2022-10-23T13:28:14.042Z,94257.06
2022-10-23T13:30:43.830Z,94252.94
2022-10-23T13:33:33.790Z,94255.38
2022-10-23T13:36:03.251Z,94254.50
2022-10-23T13:38:32.172Z,94252.94
2022-10-23T13:40:59.994Z,94246.50
2022-10-23T13:43:27.826Z,94252.84
2022-10-23T13:45:54.595Z,94244.38
2022-10-23T13:48:21.549Z,94234.28
2022-10-23T13:50:48.239Z,94251.03
2022-10-23T13:53:15.710Z,94247.41
2022-10-23T13:55:48.469Z,94254.72
2022-10-23T13:58:15.189Z,94254.28
2022-10-23T14:00:43.692Z,94245.59
2022-10-23T14:03:11.171Z,94242.34
2022-10-23T14:05:38.056Z,94235.28
2022-10-23T14:08:04.899Z,94240.31
2022-10-23T14:10:31.649Z,94239.72
2022-10-23T14:12:58.389Z,94239.94
2022-10-23T14:15:25.091Z,94228.34
2022-10-23T14:17:54.243Z,94226.22
2022-10-23T14:20:25.798Z,94215.28
2022-10-23T14:22:54.491Z,94223.75
2022-10-23T14:25:22.517Z,94210.50
2022-10-23T14:27:49.294Z,94212.81
2022-10-23T14:30:16.137Z,94210.16
2022-10-23T14:32:43.110Z,94208.53
2022-10-23T14:35:10.479Z,94215.44
2022-10-23T14:37:37.326Z,94210.69
2022-10-23T14:40:05.393Z,94205.72
2022-10-23T14:42:34.401Z,94208.00
2022-10-23T14:45:02.856Z,94204.53
2022-10-23T14:47:29.988Z,94206.16
2022-10-23T14:49:56.792Z,94199.63
2022-10-23T14:52:24.239Z,94194.31
2022-10-23T14:54:53.279Z,94199.13
2022-10-23T14:57:22.181Z,94199.97
2022-10-23T14:59:49.670Z,94198.22
2022-10-23T15:02:17.198Z,94183.22
2022-10-23T15:04:44.013Z,94193.75
2022-10-23T15:07:10.606Z,94192.09
2022-10-23T15:09:37.607Z,94198.63
2022-10-23T15:12:04.920Z,94197.34
2022-10-23T15:14:31.959Z,94190.53
2022-10-23T15:16:58.708Z,94189.97
2022-10-23T15:19:26.207Z,94191.00
2022-10-23T15:21:52.941Z,94189.28
2022-10-23T15:24:21.244Z,94188.00
2022-10-23T15:26:48.760Z,94192.81
2022-10-23T15:29:15.942Z,94186.72
2022-10-23T15:31:44.669Z,94188.03
2022-10-23T15:34:18.202Z,94200.16
2022-10-23T15:36:47.199Z,94196.59
2022-10-23T15:39:16.907Z,94198.50
2022-10-23T15:41:43.718Z,94195.00
2022-10-23T15:44:14.641Z,94196.53
2022-10-23T15:46:41.520Z,94190.75
2022-10-23T15:49:09.600Z,94194.31
2022-10-23T15:51:37.211Z,94191.31
2022-10-23T15:54:05.527Z,94192.72
2022-10-23T15:56:32.505Z,94190.38
2022-10-23T15:58:59.460Z,94189.50
2022-10-23T16:01:26.662Z,94187.28
2022-10-23T16:03:53.571Z,94183.53
2022-10-23T16:06:20.947Z,94182.06
2022-10-23T16:08:47.860Z,94181.19
2022-10-23T16:11:23.600Z,94193.88
2022-10-23T16:13:50.520Z,94187.19
2022-10-23T16:16:18.248Z,94192.38
2022-10-23T16:18:45.579Z,94197.03
2022-10-23T16:21:33.699Z,94200.78
2022-10-23T16:24:01.611Z,94209.97
2022-10-23T16:26:30.551Z,94207.72
2022-10-23T16:29:00.110Z,94209.84
2022-10-23T16:31:27.822Z,94206.22
2022-10-23T16:36:29.882Z,94203.56
2022-10-23T16:38:56.796Z,94211.81
2022-10-23T16:41:23.443Z,94205.81
2022-10-23T16:43:50.358Z,94212.81
2022-10-23T16:46:19.727Z,94210.22
2022-10-23T16:48:46.909Z,94213.84
2022-10-23T16:51:22.219Z,94221.03
2022-10-23T16:53:49.388Z,94222.94
2022-10-23T16:56:19.018Z,94230.31
2022-10-23T16:58:46.393Z,94221.44
2022-10-23T17:01:19.701Z,94221.78
2022-10-23T17:03:48.633Z,94235.09
2022-10-23T17:06:18.710Z,94238.91
2022-10-23T17:08:46.187Z,94237.22
2022-10-23T17:11:15.887Z,94241.25
2022-10-23T17:13:49.133Z,94247.81
2022-10-23T17:16:20.740Z,94253.00
2022-10-23T17:18:47.959Z,94260.22
2022-10-23T17:21:16.160Z,94260.66
2022-10-23T17:23:43.372Z,94260.22
2022-10-23T17:26:12.184Z,94262.75
2022-10-23T17:28:40.025Z,94260.94
2022-10-23T17:31:18.360Z,94265.88
2022-10-23T17:33:45.498Z,94273.31
2022-10-23T17:36:13.719Z,94271.28
2022-10-23T17:38:42.100Z,94272.81
2022-10-23T17:41:08.880Z,94270.91
2022-10-23T17:43:36.007Z,94275.25
2022-10-23T17:46:07.209Z,94279.28
2022-10-23T17:48:35.187Z,94279.13
2022-10-23T17:51:19.197Z,94275.91
2022-10-23T17:53:48.239Z,94273.50
2022-10-23T17:56:19.959Z,94276.75
2022-10-23T17:58:47.331Z,94275.75
2022-10-23T18:01:16.288Z,94278.22
2022-10-23T18:03:42.982Z,94275.88
2022-10-23T18:06:16.389Z,94277.31
2022-10-23T18:08:43.828Z,94264.19
2022-10-23T18:11:25.517Z,94286.16
2022-10-23T18:13:52.623Z,94293.56
2022-10-23T18:16:19.712Z,94286.00
2022-10-23T18:18:51.833Z,94279.78
2022-10-23T18:21:20.442Z,94274.19
2022-10-23T18:23:47.212Z,94263.78
2022-10-23T18:26:25.318Z,94273.59
2022-10-23T18:28:56.752Z,94267.22
2022-10-23T18:31:25.387Z,94275.44
2022-10-23T18:33:59.768Z,94279.16
2022-10-23T18:36:29.248Z,94265.59
2022-10-23T18:41:28.118Z,94280.50
2022-10-23T18:43:55.027Z,94273.13
2022-10-23T18:46:22.427Z,94264.16
2022-10-23T18:48:50.894Z,94259.94
2022-10-23T18:51:26.600Z,94265.72
2022-10-23T18:53:53.708Z,94263.72
2022-10-23T18:56:23.517Z,94262.56
2022-10-23T18:58:55.401Z,94264.38
2022-10-23T19:01:23.410Z,94260.97
2022-10-23T19:03:50.446Z,94238.63
2022-10-23T19:06:17.853Z,94231.84
2022-10-23T19:08:45.821Z,94238.78
2022-10-23T19:11:13.651Z,94248.75
2022-10-23T19:13:41.448Z,94247.59
2022-10-23T19:16:14.643Z,94251.53
2022-10-23T19:18:43.829Z,94251.50
2022-10-23T19:21:10.642Z,94250.88
2022-10-23T19:23:38.308Z,94255.66
2022-10-23T19:26:08.977Z,94254.09
2022-10-23T19:28:37.913Z,94253.09
2022-10-23T19:31:05.068Z,94256.69
2022-10-23T19:33:32.694Z,94264.66
2022-10-23T19:36:02.316Z,94257.09
2022-10-23T19:38:31.884Z,94257.53
2022-10-23T19:40:58.447Z,94259.31
2022-10-23T19:43:25.124Z,94257.53
2022-10-23T19:45:51.742Z,94245.66
2022-10-23T19:48:18.410Z,94261.59
2022-10-23T19:50:45.038Z,94264.78
2022-10-23T19:53:11.841Z,94263.63
2022-10-23T19:55:38.466Z,94260.84
2022-10-23T19:58:05.171Z,94261.03
2022-10-23T20:00:31.969Z,94268.03
2022-10-23T20:02:58.808Z,94266.44
2022-10-23T20:05:25.623Z,94266.81
2022-10-23T20:07:52.347Z,94272.00
2022-10-23T20:10:19.268Z,94274.28
2022-10-23T20:12:56.383Z,94274.22
2022-10-23T20:15:23.621Z,94273.00
2022-10-23T20:17:50.160Z,94282.03
2022-10-23T20:20:16.855Z,94275.44
2022-10-23T20:22:44.177Z,94275.78
2022-10-23T20:25:11.063Z,94262.22
2022-10-23T20:30:09.921Z,94266.94
2022-10-23T20:32:36.530Z,94269.56
2022-10-23T20:35:03.305Z,94284.06
2022-10-23T20:37:30.608Z,94284.84
2022-10-23T20:39:57.178Z,94292.81
2022-10-23T20:42:23.787Z,94286.22
2022-10-23T20:44:50.399Z,94287.63
2022-10-23T20:47:16.985Z,94287.97
2022-10-23T20:49:43.565Z,94293.03
2022-10-23T20:52:10.139Z,94296.22
2022-10-23T20:54:38.209Z,94280.66
2022-10-23T20:57:04.753Z,94282.88
2022-10-23T20:59:31.470Z,94278.44
2022-10-23T21:01:58.194Z,94274.06
2022-10-23T21:04:27.558Z,94272.09
2022-10-23T21:07:11.698Z,94266.19
2022-10-23T21:09:39.344Z,94268.81
2022-10-23T21:12:06.685Z,94279.16
2022-10-23T21:14:33.716Z,94265.19
2022-10-23T21:17:00.479Z,94270.59
2022-10-23T21:19:27.236Z,94272.63
2022-10-23T21:21:54.684Z,94269.00
2022-10-23T21:24:21.293Z,94274.78
2022-10-23T21:26:48.008Z,94268.81
2022-10-23T21:29:19.334Z,94263.22
2022-10-23T21:31:52.654Z,94259.44
2022-10-23T21:34:19.197Z,94258.84
2022-10-23T21:37:10.828Z,94261.03
2022-10-23T21:39:33.207Z,94246.53
2022-10-23T21:41:59.777Z,94257.50
2022-10-23T21:44:26.326Z,94246.34
2022-10-23T21:46:52.982Z,94255.13
2022-10-23T21:49:19.564Z,94247.16
2022-10-23T21:51:47.359Z,94256.13
2022-10-23T21:54:17.712Z,94255.75
2022-10-23T21:56:49.095Z,94242.38
2022-10-23T21:59:19.011Z,94244.81
2022-10-23T22:01:47.172Z,94251.19
2022-10-23T22:04:14.996Z,94249.22
2022-10-23T22:06:42.760Z,94248.63
2022-10-23T22:09:11.180Z,94251.81
2022-10-23T22:11:38.096Z,94260.97
2022-10-23T22:14:04.798Z,94251.63
2022-10-23T22:16:31.590Z,94259.78
2022-10-23T22:18:58.205Z,94246.63
2022-10-23T22:21:27.556Z,94250.06
2022-10-23T22:23:55.841Z,94246.44
2022-10-23T22:26:22.410Z,94242.50
2022-10-23T22:28:50.316Z,94241.91
2022-10-23T22:31:19.872Z,94236.13
2022-10-23T22:33:46.509Z,94245.69
2022-10-23T22:36:13.377Z,94235.72
2022-10-23T22:38:40.706Z,94249.88
2022-10-23T22:41:07.831Z,94241.50
2022-10-23T22:43:34.453Z,94248.69
2022-10-23T22:46:10.123Z,94249.47
2022-10-23T22:48:37.198Z,94239.31
2022-10-23T22:51:07.250Z,94236.13
2022-10-23T22:53:35.586Z,94244.13
2022-10-23T22:56:06.295Z,94247.31
2022-10-23T22:58:37.974Z,94249.69
2022-10-23T23:01:16.146Z,94254.47
2022-10-23T23:03:43.038Z,94248.69
2022-10-23T23:06:10.380Z,94253.69
2022-10-23T23:08:38.406Z,94261.44
2022-10-23T23:11:06.181Z,94250.09
2022-10-23T23:13:33.219Z,94263.44
2022-10-23T23:16:00.423Z,94260.06
2022-10-23T23:18:27.468Z,94264.66
2022-10-23T23:20:54.187Z,94267.66
2022-10-23T23:23:21.048Z,94268.03
2022-10-23T23:25:49.161Z,94277.59
2022-10-23T23:28:18.271Z,94287.16
2022-10-23T23:33:13.316Z,94286.75
2022-10-23T23:35:44.623Z,94284.38
2022-10-23T23:38:12.540Z,94281.97
2022-10-23T23:40:40.345Z,94275.41
2022-10-23T23:43:07.399Z,94258.09
2022-10-23T23:45:33.993Z,94261.25
2022-10-23T23:48:00.672Z,94273.81
2022-10-23T23:50:28.101Z,94276.19
2022-10-23T23:52:55.081Z,94277.78
2022-10-23T23:55:21.927Z,94282.38
2022-10-23T23:57:48.571Z,94275.19
